Terminal Aerodrome Forecast
Issued by NWS

Home | Current Version | Previous Version | Text Only | Print | Product List | Glossary On
Versions: 1 2 3 4 5 6 7 8 9 10 11 12 13 14 15 16
000
FTUS43 KBIS 122300 RRA
TAFMOT
TAF
KMOT 122342Z 1300/1324 29016G25KT P6SM SKC
     FM130200 31008KT P6SM SKC
     FM130800 27008KT P6SM SKC
     FM131400 29015KT P6SM SKC
     FM131800 31018G28KT P6SM SCT060=

USA.gov is the U.S. government's official web portal to all federal, state and local government web resources and services.